sensor_id;sensor_type;location;lat;lon;timestamp;P1;durP1;ratioP1;P2;durP2;ratioP2
9836;SDS011;4957;51.412;6.724;2022-07-10T00:01:26;4.37;;;1.13;;
9836;SDS011;4957;51.412;6.724;2022-07-10T00:03:51;3.50;;;1.20;;
9836;SDS011;4957;51.412;6.724;2022-07-10T00:06:19;3.23;;;0.80;;
9836;SDS011;4957;51.412;6.724;2022-07-10T00:08:45;4.17;;;1.20;;
9836;SDS011;4957;51.412;6.724;2022-07-10T00:11:11;4.50;;;1.00;;
9836;SDS011;4957;51.412;6.724;2022-07-10T00:13:37;3.57;;;1.30;;
9836;SDS011;4957;51.412;6.724;2022-07-10T00:16:03;4.13;;;1.20;;
9836;SDS011;4957;51.412;6.724;2022-07-10T00:18:29;3.67;;;1.23;;
9836;SDS011;4957;51.412;6.724;2022-07-10T00:20:55;4.77;;;1.23;;
9836;SDS011;4957;51.412;6.724;2022-07-10T00:23:20;3.63;;;1.07;;
9836;SDS011;4957;51.412;6.724;2022-07-10T00:25:46;4.33;;;1.43;;
9836;SDS011;4957;51.412;6.724;2022-07-10T00:28:12;7.40;;;1.20;;
9836;SDS011;4957;51.412;6.724;2022-07-10T00:30:37;4.43;;;1.07;;
9836;SDS011;4957;51.412;6.724;2022-07-10T00:33:04;3.77;;;1.10;;
9836;SDS011;4957;51.412;6.724;2022-07-10T00:35:30;2.43;;;1.00;;
9836;SDS011;4957;51.412;6.724;2022-07-10T00:37:55;7.10;;;1.50;;
9836;SDS011;4957;51.412;6.724;2022-07-10T00:40:21;2.93;;;1.20;;
9836;SDS011;4957;51.412;6.724;2022-07-10T00:42:47;4.93;;;1.40;;
9836;SDS011;4957;51.412;6.724;2022-07-10T00:45:13;5.80;;;0.93;;
9836;SDS011;4957;51.412;6.724;2022-07-10T00:47:39;6.17;;;1.27;;
9836;SDS011;4957;51.412;6.724;2022-07-10T00:50:05;6.90;;;1.20;;
9836;SDS011;4957;51.412;6.724;2022-07-10T00:52:32;3.43;;;1.00;;
9836;SDS011;4957;51.412;6.724;2022-07-10T00:55:03;4.77;;;1.30;;
9836;SDS011;4957;51.412;6.724;2022-07-10T00:57:30;1.73;;;0.80;;
9836;SDS011;4957;51.412;6.724;2022-07-10T00:59:57;2.73;;;0.80;;
9836;SDS011;4957;51.412;6.724;2022-07-10T01:02:23;3.77;;;1.03;;
9836;SDS011;4957;51.412;6.724;2022-07-10T01:04:49;4.10;;;0.93;;
9836;SDS011;4957;51.412;6.724;2022-07-10T01:07:15;6.63;;;1.20;;
9836;SDS011;4957;51.412;6.724;2022-07-10T01:09:41;8.07;;;1.30;;
9836;SDS011;4957;51.412;6.724;2022-07-10T01:12:07;2.73;;;1.00;;
9836;SDS011;4957;51.412;6.724;2022-07-10T01:14:35;4.10;;;1.13;;
9836;SDS011;4957;51.412;6.724;2022-07-10T01:17:04;3.67;;;1.23;;
9836;SDS011;4957;51.412;6.724;2022-07-10T01:19:31;3.50;;;0.90;;
9836;SDS011;4957;51.412;6.724;2022-07-10T01:21:57;3.93;;;1.10;;
9836;SDS011;4957;51.412;6.724;2022-07-10T01:24:23;3.30;;;1.10;;
9836;SDS011;4957;51.412;6.724;2022-07-10T01:26:49;3.93;;;1.57;;
9836;SDS011;4957;51.412;6.724;2022-07-10T01:29:14;4.97;;;1.30;;
9836;SDS011;4957;51.412;6.724;2022-07-10T01:31:40;3.50;;;1.20;;
9836;SDS011;4957;51.412;6.724;2022-07-10T01:34:07;2.00;;;0.90;;
9836;SDS011;4957;51.412;6.724;2022-07-10T01:36:34;1.27;;;0.67;;
9836;SDS011;4957;51.412;6.724;2022-07-10T01:39:00;4.30;;;1.30;;
9836;SDS011;4957;51.412;6.724;2022-07-10T01:41:26;3.50;;;1.27;;
9836;SDS011;4957;51.412;6.724;2022-07-10T01:43:52;6.60;;;1.30;;
9836;SDS011;4957;51.412;6.724;2022-07-10T01:46:18;3.90;;;1.00;;
9836;SDS011;4957;51.412;6.724;2022-07-10T01:48:44;6.70;;;1.47;;
9836;SDS011;4957;51.412;6.724;2022-07-10T01:51:11;4.30;;;1.10;;
9836;SDS011;4957;51.412;6.724;2022-07-10T01:53:37;5.57;;;1.10;;
9836;SDS011;4957;51.412;6.724;2022-07-10T01:56:04;3.83;;;1.17;;
9836;SDS011;4957;51.412;6.724;2022-07-10T01:58:32;2.63;;;0.93;;
9836;SDS011;4957;51.412;6.724;2022-07-10T02:00:57;3.17;;;1.00;;
9836;SDS011;4957;51.412;6.724;2022-07-10T02:03:23;6.47;;;0.80;;
9836;SDS011;4957;51.412;6.724;2022-07-10T02:06:07;4.27;;;1.30;;
9836;SDS011;4957;51.412;6.724;2022-07-10T02:08:33;4.90;;;1.33;;
9836;SDS011;4957;51.412;6.724;2022-07-10T02:10:58;3.30;;;1.10;;
9836;SDS011;4957;51.412;6.724;2022-07-10T02:13:24;4.93;;;1.47;;
9836;SDS011;4957;51.412;6.724;2022-07-10T02:15:53;7.47;;;1.10;;
9836;SDS011;4957;51.412;6.724;2022-07-10T02:18:19;4.13;;;0.97;;
9836;SDS011;4957;51.412;6.724;2022-07-10T02:20:46;4.03;;;1.37;;
9836;SDS011;4957;51.412;6.724;2022-07-10T02:23:12;3.00;;;1.20;;
9836;SDS011;4957;51.412;6.724;2022-07-10T02:25:38;6.27;;;1.30;;
9836;SDS011;4957;51.412;6.724;2022-07-10T02:28:04;1.93;;;0.80;;
9836;SDS011;4957;51.412;6.724;2022-07-10T02:30:30;9.77;;;1.20;;
9836;SDS011;4957;51.412;6.724;2022-07-10T02:32:55;4.03;;;1.13;;
9836;SDS011;4957;51.412;6.724;2022-07-10T02:35:21;3.30;;;1.20;;
9836;SDS011;4957;51.412;6.724;2022-07-10T02:37:47;4.53;;;1.40;;
9836;SDS011;4957;51.412;6.724;2022-07-10T02:40:13;4.37;;;1.00;;
9836;SDS011;4957;51.412;6.724;2022-07-10T02:42:38;1.93;;;0.90;;
9836;SDS011;4957;51.412;6.724;2022-07-10T02:45:04;3.63;;;1.07;;
9836;SDS011;4957;51.412;6.724;2022-07-10T02:47:30;2.23;;;0.93;;
9836;SDS011;4957;51.412;6.724;2022-07-10T02:49:56;3.30;;;1.07;;
9836;SDS011;4957;51.412;6.724;2022-07-10T02:52:21;3.37;;;1.10;;
9836;SDS011;4957;51.412;6.724;2022-07-10T02:54:47;4.20;;;1.43;;
9836;SDS011;4957;51.412;6.724;2022-07-10T02:57:13;5.00;;;1.37;;
9836;SDS011;4957;51.412;6.724;2022-07-10T02:59:38;4.17;;;1.20;;
9836;SDS011;4957;51.412;6.724;2022-07-10T03:02:04;4.50;;;1.30;;
9836;SDS011;4957;51.412;6.724;2022-07-10T03:04:30;5.20;;;1.67;;
9836;SDS011;4957;51.412;6.724;2022-07-10T03:06:56;6.10;;;1.23;;
9836;SDS011;4957;51.412;6.724;2022-07-10T03:09:21;4.43;;;0.93;;
9836;SDS011;4957;51.412;6.724;2022-07-10T03:11:47;4.03;;;1.23;;
9836;SDS011;4957;51.412;6.724;2022-07-10T03:14:13;6.60;;;1.33;;
9836;SDS011;4957;51.412;6.724;2022-07-10T03:16:38;5.77;;;1.60;;
9836;SDS011;4957;51.412;6.724;2022-07-10T03:19:04;3.23;;;1.10;;
9836;SDS011;4957;51.412;6.724;2022-07-10T03:21:30;3.53;;;1.00;;
9836;SDS011;4957;51.412;6.724;2022-07-10T03:23:56;6.80;;;1.27;;
9836;SDS011;4957;51.412;6.724;2022-07-10T03:26:22;2.07;;;1.10;;
9836;SDS011;4957;51.412;6.724;2022-07-10T03:28:47;4.87;;;1.47;;
9836;SDS011;4957;51.412;6.724;2022-07-10T03:31:13;3.13;;;1.20;;
9836;SDS011;4957;51.412;6.724;2022-07-10T03:33:39;3.80;;;1.57;;
9836;SDS011;4957;51.412;6.724;2022-07-10T03:36:04;3.30;;;1.03;;
9836;SDS011;4957;51.412;6.724;2022-07-10T03:38:31;4.13;;;1.17;;
9836;SDS011;4957;51.412;6.724;2022-07-10T03:40:56;3.93;;;1.20;;
9836;SDS011;4957;51.412;6.724;2022-07-10T03:43:22;6.90;;;1.23;;
9836;SDS011;4957;51.412;6.724;2022-07-10T03:45:49;3.10;;;1.20;;
9836;SDS011;4957;51.412;6.724;2022-07-10T03:48:15;5.03;;;1.90;;
9836;SDS011;4957;51.412;6.724;2022-07-10T03:50:41;3.03;;;1.33;;
9836;SDS011;4957;51.412;6.724;2022-07-10T03:53:07;2.63;;;1.10;;
9836;SDS011;4957;51.412;6.724;2022-07-10T03:55:33;6.80;;;1.63;;
9836;SDS011;4957;51.412;6.724;2022-07-10T03:57:58;4.57;;;1.50;;
9836;SDS011;4957;51.412;6.724;2022-07-10T04:00:28;2.10;;;1.20;;
9836;SDS011;4957;51.412;6.724;2022-07-10T04:03:06;4.30;;;1.47;;
9836;SDS011;4957;51.412;6.724;2022-07-10T04:05:32;2.63;;;1.43;;
9836;SDS011;4957;51.412;6.724;2022-07-10T04:07:59;4.60;;;1.30;;
9836;SDS011;4957;51.412;6.724;2022-07-10T04:10:25;3.80;;;1.50;;
9836;SDS011;4957;51.412;6.724;2022-07-10T04:12:52;5.90;;;1.20;;
9836;SDS011;4957;51.412;6.724;2022-07-10T04:15:19;4.23;;;1.30;;
9836;SDS011;4957;51.412;6.724;2022-07-10T04:17:45;6.87;;;2.07;;
9836;SDS011;4957;51.412;6.724;2022-07-10T04:20:11;3.10;;;1.30;;
9836;SDS011;4957;51.412;6.724;2022-07-10T04:22:37;6.53;;;1.83;;
9836;SDS011;4957;51.412;6.724;2022-07-10T04:25:03;8.57;;;1.80;;
9836;SDS011;4957;51.412;6.724;2022-07-10T04:27:30;3.93;;;1.40;;
9836;SDS011;4957;51.412;6.724;2022-07-10T04:29:56;2.53;;;1.30;;
9836;SDS011;4957;51.412;6.724;2022-07-10T04:32:22;4.63;;;1.60;;
9836;SDS011;4957;51.412;6.724;2022-07-10T04:34:48;4.57;;;1.47;;
9836;SDS011;4957;51.412;6.724;2022-07-10T04:37:14;3.13;;;1.40;;
9836;SDS011;4957;51.412;6.724;2022-07-10T04:39:39;4.00;;;1.60;;
9836;SDS011;4957;51.412;6.724;2022-07-10T04:42:06;4.17;;;1.37;;
9836;SDS011;4957;51.412;6.724;2022-07-10T04:44:33;3.20;;;1.43;;
9836;SDS011;4957;51.412;6.724;2022-07-10T04:46:59;4.63;;;1.60;;
9836;SDS011;4957;51.412;6.724;2022-07-10T04:49:25;5.83;;;1.50;;
9836;SDS011;4957;51.412;6.724;2022-07-10T04:51:51;4.27;;;1.83;;
9836;SDS011;4957;51.412;6.724;2022-07-10T04:54:17;4.40;;;1.50;;
9836;SDS011;4957;51.412;6.724;2022-07-10T04:56:43;3.93;;;1.63;;
9836;SDS011;4957;51.412;6.724;2022-07-10T04:59:09;5.47;;;1.97;;
9836;SDS011;4957;51.412;6.724;2022-07-10T05:01:35;5.53;;;1.80;;
9836;SDS011;4957;51.412;6.724;2022-07-10T05:04:02;4.27;;;1.53;;
9836;SDS011;4957;51.412;6.724;2022-07-10T05:06:28;2.27;;;1.37;;
9836;SDS011;4957;51.412;6.724;2022-07-10T05:08:53;5.80;;;1.57;;
9836;SDS011;4957;51.412;6.724;2022-07-10T05:11:20;3.97;;;1.80;;
9836;SDS011;4957;51.412;6.724;2022-07-10T05:13:46;6.03;;;1.80;;
9836;SDS011;4957;51.412;6.724;2022-07-10T05:16:13;4.47;;;1.90;;
9836;SDS011;4957;51.412;6.724;2022-07-10T05:18:43;4.37;;;1.73;;
9836;SDS011;4957;51.412;6.724;2022-07-10T05:21:09;2.83;;;1.37;;
9836;SDS011;4957;51.412;6.724;2022-07-10T05:23:35;3.77;;;1.50;;
9836;SDS011;4957;51.412;6.724;2022-07-10T05:26:02;2.30;;;1.27;;
9836;SDS011;4957;51.412;6.724;2022-07-10T05:28:27;3.77;;;1.50;;
9836;SDS011;4957;51.412;6.724;2022-07-10T05:30:53;4.57;;;1.17;;
9836;SDS011;4957;51.412;6.724;2022-07-10T05:33:19;6.40;;;1.70;;
9836;SDS011;4957;51.412;6.724;2022-07-10T05:35:45;4.63;;;1.50;;
9836;SDS011;4957;51.412;6.724;2022-07-10T05:38:10;3.90;;;1.50;;
9836;SDS011;4957;51.412;6.724;2022-07-10T05:40:36;5.17;;;1.67;;
9836;SDS011;4957;51.412;6.724;2022-07-10T05:43:02;4.10;;;1.87;;
9836;SDS011;4957;51.412;6.724;2022-07-10T05:45:28;3.10;;;1.60;;
9836;SDS011;4957;51.412;6.724;2022-07-10T05:47:54;4.30;;;1.60;;
9836;SDS011;4957;51.412;6.724;2022-07-10T05:50:20;4.03;;;1.70;;
9836;SDS011;4957;51.412;6.724;2022-07-10T05:52:46;2.90;;;1.43;;
9836;SDS011;4957;51.412;6.724;2022-07-10T05:55:11;7.27;;;1.33;;
9836;SDS011;4957;51.412;6.724;2022-07-10T05:57:37;3.43;;;1.40;;
9836;SDS011;4957;51.412;6.724;2022-07-10T06:00:03;4.90;;;1.50;;
9836;SDS011;4957;51.412;6.724;2022-07-10T06:02:30;4.60;;;1.20;;
9836;SDS011;4957;51.412;6.724;2022-07-10T06:04:56;5.50;;;1.60;;
9836;SDS011;4957;51.412;6.724;2022-07-10T06:07:21;5.83;;;1.37;;
9836;SDS011;4957;51.412;6.724;2022-07-10T06:09:48;4.00;;;1.63;;
9836;SDS011;4957;51.412;6.724;2022-07-10T06:12:13;5.03;;;1.43;;
9836;SDS011;4957;51.412;6.724;2022-07-10T06:14:41;6.53;;;1.63;;
9836;SDS011;4957;51.412;6.724;2022-07-10T06:17:07;4.67;;;1.90;;
9836;SDS011;4957;51.412;6.724;2022-07-10T06:19:33;6.70;;;1.50;;
9836;SDS011;4957;51.412;6.724;2022-07-10T06:21:59;1.67;;;1.20;;
9836;SDS011;4957;51.412;6.724;2022-07-10T06:24:43;4.97;;;1.60;;
9836;SDS011;4957;51.412;6.724;2022-07-10T06:27:09;2.40;;;1.30;;
9836;SDS011;4957;51.412;6.724;2022-07-10T06:29:34;2.67;;;1.20;;
9836;SDS011;4957;51.412;6.724;2022-07-10T06:32:00;4.43;;;1.40;;
9836;SDS011;4957;51.412;6.724;2022-07-10T06:34:26;5.60;;;1.50;;
9836;SDS011;4957;51.412;6.724;2022-07-10T06:36:52;4.30;;;1.80;;
9836;SDS011;4957;51.412;6.724;2022-07-10T06:39:18;3.40;;;1.23;;
9836;SDS011;4957;51.412;6.724;2022-07-10T06:41:43;6.80;;;1.40;;
9836;SDS011;4957;51.412;6.724;2022-07-10T06:44:09;6.00;;;1.50;;
9836;SDS011;4957;51.412;6.724;2022-07-10T06:46:35;5.43;;;1.40;;
9836;SDS011;4957;51.412;6.724;2022-07-10T06:49:00;5.67;;;1.30;;
9836;SDS011;4957;51.412;6.724;2022-07-10T06:51:26;3.80;;;1.30;;
9836;SDS011;4957;51.412;6.724;2022-07-10T06:53:52;4.80;;;1.47;;
9836;SDS011;4957;51.412;6.724;2022-07-10T06:56:18;7.53;;;1.70;;
9836;SDS011;4957;51.412;6.724;2022-07-10T06:58:44;4.10;;;1.30;;
9836;SDS011;4957;51.412;6.724;2022-07-10T07:01:10;3.73;;;1.20;;
9836;SDS011;4957;51.412;6.724;2022-07-10T07:03:35;9.93;;;1.13;;
9836;SDS011;4957;51.412;6.724;2022-07-10T07:06:01;4.00;;;1.17;;
9836;SDS011;4957;51.412;6.724;2022-07-10T07:08:30;6.33;;;1.40;;
9836;SDS011;4957;51.412;6.724;2022-07-10T07:10:55;9.43;;;1.80;;
9836;SDS011;4957;51.412;6.724;2022-07-10T07:13:22;4.43;;;1.00;;
9836;SDS011;4957;51.412;6.724;2022-07-10T07:15:47;4.63;;;1.63;;
9836;SDS011;4957;51.412;6.724;2022-07-10T07:18:23;3.90;;;1.20;;
9836;SDS011;4957;51.412;6.724;2022-07-10T07:20:57;5.30;;;1.40;;
9836;SDS011;4957;51.412;6.724;2022-07-10T07:23:43;4.90;;;1.20;;
9836;SDS011;4957;51.412;6.724;2022-07-10T07:26:09;3.47;;;1.23;;
9836;SDS011;4957;51.412;6.724;2022-07-10T07:28:35;4.83;;;1.30;;
9836;SDS011;4957;51.412;6.724;2022-07-10T07:31:00;6.83;;;1.47;;
9836;SDS011;4957;51.412;6.724;2022-07-10T07:33:26;6.50;;;1.10;;
9836;SDS011;4957;51.412;6.724;2022-07-10T07:35:52;4.03;;;1.03;;
9836;SDS011;4957;51.412;6.724;2022-07-10T07:38:18;6.57;;;1.77;;
9836;SDS011;4957;51.412;6.724;2022-07-10T07:40:43;6.40;;;1.37;;
9836;SDS011;4957;51.412;6.724;2022-07-10T07:43:09;7.27;;;1.80;;
9836;SDS011;4957;51.412;6.724;2022-07-10T07:45:35;6.00;;;1.43;;
9836;SDS011;4957;51.412;6.724;2022-07-10T07:48:01;4.93;;;1.40;;
9836;SDS011;4957;51.412;6.724;2022-07-10T07:50:28;6.80;;;1.40;;
9836;SDS011;4957;51.412;6.724;2022-07-10T07:52:57;6.33;;;1.43;;
9836;SDS011;4957;51.412;6.724;2022-07-10T07:55:23;3.93;;;1.20;;
9836;SDS011;4957;51.412;6.724;2022-07-10T07:57:51;5.77;;;1.37;;
9836;SDS011;4957;51.412;6.724;2022-07-10T08:00:18;2.73;;;1.10;;
9836;SDS011;4957;51.412;6.724;2022-07-10T08:02:44;8.03;;;1.47;;
9836;SDS011;4957;51.412;6.724;2022-07-10T08:05:10;6.07;;;1.30;;
9836;SDS011;4957;51.412;6.724;2022-07-10T08:07:37;5.97;;;1.83;;
9836;SDS011;4957;51.412;6.724;2022-07-10T08:10:03;2.90;;;1.40;;
9836;SDS011;4957;51.412;6.724;2022-07-10T08:12:31;4.10;;;1.30;;
9836;SDS011;4957;51.412;6.724;2022-07-10T08:14:56;3.80;;;1.43;;
9836;SDS011;4957;51.412;6.724;2022-07-10T08:17:23;3.20;;;1.20;;
9836;SDS011;4957;51.412;6.724;2022-07-10T08:19:49;5.77;;;1.83;;
9836;SDS011;4957;51.412;6.724;2022-07-10T08:22:15;13.93;;;2.03;;
9836;SDS011;4957;51.412;6.724;2022-07-10T08:24:41;4.30;;;1.93;;
9836;SDS011;4957;51.412;6.724;2022-07-10T08:27:06;6.87;;;1.97;;
9836;SDS011;4957;51.412;6.724;2022-07-10T08:29:33;5.33;;;1.73;;
9836;SDS011;4957;51.412;6.724;2022-07-10T08:31:59;5.00;;;1.93;;
9836;SDS011;4957;51.412;6.724;2022-07-10T08:34:25;6.67;;;2.03;;
9836;SDS011;4957;51.412;6.724;2022-07-10T08:36:52;8.37;;;2.17;;
9836;SDS011;4957;51.412;6.724;2022-07-10T08:39:18;4.17;;;1.60;;
9836;SDS011;4957;51.412;6.724;2022-07-10T08:41:46;7.93;;;2.37;;
9836;SDS011;4957;51.412;6.724;2022-07-10T08:44:15;4.70;;;1.67;;
9836;SDS011;4957;51.412;6.724;2022-07-10T08:46:42;14.13;;;3.33;;
9836;SDS011;4957;51.412;6.724;2022-07-10T08:49:09;5.77;;;2.00;;
9836;SDS011;4957;51.412;6.724;2022-07-10T08:51:37;5.03;;;2.00;;
9836;SDS011;4957;51.412;6.724;2022-07-10T08:54:07;4.33;;;1.63;;
9836;SDS011;4957;51.412;6.724;2022-07-10T08:56:33;3.90;;;1.87;;
9836;SDS011;4957;51.412;6.724;2022-07-10T08:59:01;7.07;;;2.20;;
9836;SDS011;4957;51.412;6.724;2022-07-10T09:01:29;6.57;;;2.10;;
9836;SDS011;4957;51.412;6.724;2022-07-10T09:03:55;7.17;;;2.17;;
9836;SDS011;4957;51.412;6.724;2022-07-10T09:06:21;6.30;;;2.30;;
9836;SDS011;4957;51.412;6.724;2022-07-10T09:09:08;7.03;;;1.87;;
9836;SDS011;4957;51.412;6.724;2022-07-10T09:11:33;5.90;;;1.70;;
9836;SDS011;4957;51.412;6.724;2022-07-10T09:14:05;7.93;;;2.37;;
9836;SDS011;4957;51.412;6.724;2022-07-10T09:16:36;9.00;;;2.00;;
9836;SDS011;4957;51.412;6.724;2022-07-10T09:19:18;4.27;;;1.57;;
9836;SDS011;4957;51.412;6.724;2022-07-10T09:22:09;3.90;;;1.63;;
9836;SDS011;4957;51.412;6.724;2022-07-10T09:24:40;5.70;;;1.80;;
9836;SDS011;4957;51.412;6.724;2022-07-10T09:27:08;5.43;;;1.57;;
9836;SDS011;4957;51.412;6.724;2022-07-10T09:29:45;8.20;;;1.90;;
9836;SDS011;4957;51.412;6.724;2022-07-10T09:32:21;6.93;;;1.97;;
9836;SDS011;4957;51.412;6.724;2022-07-10T09:34:48;5.47;;;2.10;;
9836;SDS011;4957;51.412;6.724;2022-07-10T09:37:36;7.53;;;2.40;;
9836;SDS011;4957;51.412;6.724;2022-07-10T09:40:05;5.10;;;2.23;;
9836;SDS011;4957;51.412;6.724;2022-07-10T09:42:42;3.43;;;1.70;;
9836;SDS011;4957;51.412;6.724;2022-07-10T09:47:40;5.07;;;1.73;;
9836;SDS011;4957;51.412;6.724;2022-07-10T09:50:22;2.27;;;1.30;;
9836;SDS011;4957;51.412;6.724;2022-07-10T09:52:49;7.57;;;1.80;;
9836;SDS011;4957;51.412;6.724;2022-07-10T09:55:19;7.03;;;1.57;;
9836;SDS011;4957;51.412;6.724;2022-07-10T09:57:53;2.20;;;1.17;;
9836;SDS011;4957;51.412;6.724;2022-07-10T10:00:22;3.67;;;1.30;;
9836;SDS011;4957;51.412;6.724;2022-07-10T10:02:52;0.93;;;0.70;;
9836;SDS011;4957;51.412;6.724;2022-07-10T10:05:28;0.90;;;0.87;;
9836;SDS011;4957;51.412;6.724;2022-07-10T10:08:25;2.63;;;1.00;;
9836;SDS011;4957;51.412;6.724;2022-07-10T10:10:52;0.50;;;0.50;;
9836;SDS011;4957;51.412;6.724;2022-07-10T10:13:21;1.70;;;0.80;;
9836;SDS011;4957;51.412;6.724;2022-07-10T10:15:51;0.70;;;0.70;;
9836;SDS011;4957;51.412;6.724;2022-07-10T10:18:18;2.20;;;0.83;;
9836;SDS011;4957;51.412;6.724;2022-07-10T10:20:45;3.27;;;1.07;;
9836;SDS011;4957;51.412;6.724;2022-07-10T10:23:13;1.83;;;1.30;;
9836;SDS011;4957;51.412;6.724;2022-07-10T10:25:45;1.40;;;1.07;;
9836;SDS011;4957;51.412;6.724;2022-07-10T10:28:21;1.57;;;0.90;;
9836;SDS011;4957;51.412;6.724;2022-07-10T10:30:49;2.00;;;1.00;;
9836;SDS011;4957;51.412;6.724;2022-07-10T10:35:58;2.90;;;1.17;;
9836;SDS011;4957;51.412;6.724;2022-07-10T10:38:24;2.87;;;1.27;;
9836;SDS011;4957;51.412;6.724;2022-07-10T10:40:50;3.03;;;0.80;;
9836;SDS011;4957;51.412;6.724;2022-07-10T10:43:19;2.13;;;1.00;;
9836;SDS011;4957;51.412;6.724;2022-07-10T10:45:46;2.70;;;1.10;;
9836;SDS011;4957;51.412;6.724;2022-07-10T10:48:13;1.53;;;0.77;;
9836;SDS011;4957;51.412;6.724;2022-07-10T10:53:16;1.00;;;0.80;;
9836;SDS011;4957;51.412;6.724;2022-07-10T10:58:42;1.10;;;1.00;;
9836;SDS011;4957;51.412;6.724;2022-07-10T11:04:21;1.77;;;1.20;;
9836;SDS011;4957;51.412;6.724;2022-07-10T11:06:42;3.77;;;1.40;;
9836;SDS011;4957;51.412;6.724;2022-07-10T11:12:06;2.57;;;1.10;;
9836;SDS011;4957;51.412;6.724;2022-07-10T11:14:37;2.83;;;1.60;;
9836;SDS011;4957;51.412;6.724;2022-07-10T11:17:05;5.93;;;1.20;;
9836;SDS011;4957;51.412;6.724;2022-07-10T11:19:32;1.93;;;1.20;;
9836;SDS011;4957;51.412;6.724;2022-07-10T11:24:38;6.20;;;1.57;;
9836;SDS011;4957;51.412;6.724;2022-07-10T11:27:26;3.17;;;1.43;;
9836;SDS011;4957;51.412;6.724;2022-07-10T11:30:00;1.80;;;1.23;;
9836;SDS011;4957;51.412;6.724;2022-07-10T11:32:27;5.27;;;2.20;;
9836;SDS011;4957;51.412;6.724;2022-07-10T11:34:54;2.83;;;1.20;;
9836;SDS011;4957;51.412;6.724;2022-07-10T11:37:20;4.93;;;1.70;;
9836;SDS011;4957;51.412;6.724;2022-07-10T11:39:48;2.43;;;1.20;;
9836;SDS011;4957;51.412;6.724;2022-07-10T11:42:14;3.13;;;1.50;;
9836;SDS011;4957;51.412;6.724;2022-07-10T11:44:40;2.43;;;1.20;;
9836;SDS011;4957;51.412;6.724;2022-07-10T11:47:06;1.83;;;1.10;;
9836;SDS011;4957;51.412;6.724;2022-07-10T11:49:32;3.23;;;1.30;;
9836;SDS011;4957;51.412;6.724;2022-07-10T11:52:02;2.23;;;1.43;;
9836;SDS011;4957;51.412;6.724;2022-07-10T11:54:29;3.87;;;1.50;;
9836;SDS011;4957;51.412;6.724;2022-07-10T11:56:54;1.67;;;1.40;;
9836;SDS011;4957;51.412;6.724;2022-07-10T11:59:24;3.77;;;1.37;;
9836;SDS011;4957;51.412;6.724;2022-07-10T12:01:52;3.00;;;1.20;;
9836;SDS011;4957;51.412;6.724;2022-07-10T12:04:19;2.60;;;1.30;;
9836;SDS011;4957;51.412;6.724;2022-07-10T12:06:52;4.67;;;1.70;;
9836;SDS011;4957;51.412;6.724;2022-07-10T12:09:19;2.60;;;1.63;;
9836;SDS011;4957;51.412;6.724;2022-07-10T12:14:31;2.97;;;1.57;;
9836;SDS011;4957;51.412;6.724;2022-07-10T12:16:57;2.73;;;1.40;;
9836;SDS011;4957;51.412;6.724;2022-07-10T12:21:49;2.73;;;1.50;;
9836;SDS011;4957;51.412;6.724;2022-07-10T12:24:17;3.30;;;1.60;;
9836;SDS011;4957;51.412;6.724;2022-07-10T12:26:49;2.90;;;1.70;;
9836;SDS011;4957;51.412;6.724;2022-07-10T12:31:46;4.27;;;2.00;;
9836;SDS011;4957;51.412;6.724;2022-07-10T12:34:14;3.80;;;1.70;;
9836;SDS011;4957;51.412;6.724;2022-07-10T12:36:48;6.20;;;2.17;;
9836;SDS011;4957;51.412;6.724;2022-07-10T12:39:16;4.17;;;2.10;;
9836;SDS011;4957;51.412;6.724;2022-07-10T12:41:56;7.90;;;2.10;;
9836;SDS011;4957;51.412;6.724;2022-07-10T12:44:34;3.37;;;1.90;;
9836;SDS011;4957;51.412;6.724;2022-07-10T12:47:22;7.07;;;2.30;;
9836;SDS011;4957;51.412;6.724;2022-07-10T12:49:49;6.00;;;2.07;;
9836;SDS011;4957;51.412;6.724;2022-07-10T12:52:35;4.60;;;1.93;;
9836;SDS011;4957;51.412;6.724;2022-07-10T12:57:32;4.37;;;1.60;;
9836;SDS011;4957;51.412;6.724;2022-07-10T13:00:04;4.50;;;1.43;;
9836;SDS011;4957;51.412;6.724;2022-07-10T13:02:31;3.33;;;1.40;;
9836;SDS011;4957;51.412;6.724;2022-07-10T13:04:57;2.40;;;1.30;;
9836;SDS011;4957;51.412;6.724;2022-07-10T13:07:30;2.70;;;1.13;;
9836;SDS011;4957;51.412;6.724;2022-07-10T13:09:55;1.60;;;1.10;;
9836;SDS011;4957;51.412;6.724;2022-07-10T13:12:24;2.00;;;1.10;;
9836;SDS011;4957;51.412;6.724;2022-07-10T13:14:50;1.97;;;1.27;;
9836;SDS011;4957;51.412;6.724;2022-07-10T13:17:16;5.10;;;1.30;;
9836;SDS011;4957;51.412;6.724;2022-07-10T13:19:41;3.13;;;0.93;;
9836;SDS011;4957;51.412;6.724;2022-07-10T13:22:07;3.13;;;1.20;;
9836;SDS011;4957;51.412;6.724;2022-07-10T13:24:33;2.87;;;1.10;;
9836;SDS011;4957;51.412;6.724;2022-07-10T13:26:58;1.90;;;0.90;;
9836;SDS011;4957;51.412;6.724;2022-07-10T13:29:24;3.23;;;0.90;;
9836;SDS011;4957;51.412;6.724;2022-07-10T13:31:50;2.20;;;1.20;;
9836;SDS011;4957;51.412;6.724;2022-07-10T13:34:16;3.47;;;1.10;;
9836;SDS011;4957;51.412;6.724;2022-07-10T13:36:42;2.07;;;0.90;;
9836;SDS011;4957;51.412;6.724;2022-07-10T13:39:08;1.40;;;0.90;;
9836;SDS011;4957;51.412;6.724;2022-07-10T13:41:34;2.10;;;1.13;;
9836;SDS011;4957;51.412;6.724;2022-07-10T13:43:59;1.10;;;1.00;;
9836;SDS011;4957;51.412;6.724;2022-07-10T13:46:26;2.43;;;0.90;;
9836;SDS011;4957;51.412;6.724;2022-07-10T13:48:52;1.43;;;1.10;;
9836;SDS011;4957;51.412;6.724;2022-07-10T13:51:18;2.93;;;1.10;;
9836;SDS011;4957;51.412;6.724;2022-07-10T13:53:44;2.93;;;1.13;;
9836;SDS011;4957;51.412;6.724;2022-07-10T13:56:09;2.00;;;1.00;;
9836;SDS011;4957;51.412;6.724;2022-07-10T13:58:35;1.27;;;0.97;;
9836;SDS011;4957;51.412;6.724;2022-07-10T14:01:02;4.47;;;1.37;;
9836;SDS011;4957;51.412;6.724;2022-07-10T14:03:29;4.67;;;1.20;;
9836;SDS011;4957;51.412;6.724;2022-07-10T14:05:56;3.57;;;1.20;;
9836;SDS011;4957;51.412;6.724;2022-07-10T14:08:22;4.43;;;1.43;;
9836;SDS011;4957;51.412;6.724;2022-07-10T14:10:47;3.40;;;1.03;;
9836;SDS011;4957;51.412;6.724;2022-07-10T14:13:13;2.93;;;1.20;;
9836;SDS011;4957;51.412;6.724;2022-07-10T14:15:39;1.97;;;1.00;;
9836;SDS011;4957;51.412;6.724;2022-07-10T14:18:05;1.77;;;1.00;;
9836;SDS011;4957;51.412;6.724;2022-07-10T14:20:31;4.57;;;1.10;;
9836;SDS011;4957;51.412;6.724;2022-07-10T14:23:17;2.80;;;1.20;;
9836;SDS011;4957;51.412;6.724;2022-07-10T14:25:43;3.27;;;1.20;;
9836;SDS011;4957;51.412;6.724;2022-07-10T14:28:09;1.37;;;0.93;;
9836;SDS011;4957;51.412;6.724;2022-07-10T14:30:38;2.67;;;1.10;;
9836;SDS011;4957;51.412;6.724;2022-07-10T14:33:07;3.17;;;0.97;;
9836;SDS011;4957;51.412;6.724;2022-07-10T14:35:33;1.87;;;0.87;;
9836;SDS011;4957;51.412;6.724;2022-07-10T14:37:58;3.57;;;1.00;;
9836;SDS011;4957;51.412;6.724;2022-07-10T14:40:24;1.90;;;1.10;;
9836;SDS011;4957;51.412;6.724;2022-07-10T14:42:50;2.07;;;1.10;;
9836;SDS011;4957;51.412;6.724;2022-07-10T14:45:15;1.50;;;0.93;;
9836;SDS011;4957;51.412;6.724;2022-07-10T14:47:41;3.77;;;1.10;;
9836;SDS011;4957;51.412;6.724;2022-07-10T14:50:07;1.73;;;0.90;;
9836;SDS011;4957;51.412;6.724;2022-07-10T14:52:33;1.77;;;1.00;;
9836;SDS011;4957;51.412;6.724;2022-07-10T14:55:02;3.30;;;1.67;;
9836;SDS011;4957;51.412;6.724;2022-07-10T14:57:28;2.13;;;1.07;;
9836;SDS011;4957;51.412;6.724;2022-07-10T14:59:53;0.80;;;0.80;;
9836;SDS011;4957;51.412;6.724;2022-07-10T15:02:19;1.80;;;1.63;;
9836;SDS011;4957;51.412;6.724;2022-07-10T15:04:45;2.37;;;1.00;;
9836;SDS011;4957;51.412;6.724;2022-07-10T15:07:10;2.13;;;0.90;;
9836;SDS011;4957;51.412;6.724;2022-07-10T15:09:36;2.47;;;0.80;;
9836;SDS011;4957;51.412;6.724;2022-07-10T15:12:02;1.77;;;0.90;;
9836;SDS011;4957;51.412;6.724;2022-07-10T15:14:28;4.00;;;1.60;;
9836;SDS011;4957;51.412;6.724;2022-07-10T15:16:54;3.47;;;1.00;;
9836;SDS011;4957;51.412;6.724;2022-07-10T15:19:20;2.77;;;1.03;;
9836;SDS011;4957;51.412;6.724;2022-07-10T15:21:45;1.33;;;1.10;;
9836;SDS011;4957;51.412;6.724;2022-07-10T15:24:11;4.03;;;1.40;;
9836;SDS011;4957;51.412;6.724;2022-07-10T15:26:37;5.07;;;1.20;;
9836;SDS011;4957;51.412;6.724;2022-07-10T15:29:03;2.47;;;1.10;;
9836;SDS011;4957;51.412;6.724;2022-07-10T15:31:28;1.50;;;1.00;;
9836;SDS011;4957;51.412;6.724;2022-07-10T15:33:54;1.93;;;1.20;;
9836;SDS011;4957;51.412;6.724;2022-07-10T15:36:20;3.10;;;1.10;;
9836;SDS011;4957;51.412;6.724;2022-07-10T15:38:46;3.70;;;1.23;;
9836;SDS011;4957;51.412;6.724;2022-07-10T15:41:12;3.27;;;1.13;;
9836;SDS011;4957;51.412;6.724;2022-07-10T15:43:38;2.10;;;0.93;;
9836;SDS011;4957;51.412;6.724;2022-07-10T15:46:04;3.90;;;1.27;;